Time;durP1;ratioP1;P1;durP2;ratioP2;P2;SDS_P1;SDS_P2;PMS_P1;PMS_P2;Temp;Humidity;BMP_temperature;BMP_pressure;BME280_temperature;BME280_humidity;BME280_pressure;Samples;Min_cycle;Max_cycle;Signal;HPM_P1;HPM_P2
2023/08/05 00:01:02;;;;;;;8.73;7.82;;;24.60;79.80;;;;;;5034902;28;20060;-85
2023/08/05 00:03:28;;;;;;;8.48;7.68;;;24.60;79.40;;;;;;5034740;28;20030;-85
2023/08/05 00:05:54;;;;;;;8.48;7.57;;;24.60;79.20;;;;;;5034263;28;20037;-85
2023/08/05 00:08:19;;;;;;;8.90;8.00;;;24.60;79.10;;;;;;5035740;28;20021;-85
2023/08/05 00:10:46;;;;;;;8.20;6.97;;;24.60;78.90;;;;;;5036851;28;20103;-85
2023/08/05 00:13:12;;;;;;;9.05;7.85;;;24.60;78.90;;;;;;5036637;28;20021;-85
2023/08/05 00:15:38;;;;;;;8.40;7.60;;;24.60;78.90;;;;;;5035120;28;20046;-85
2023/08/05 00:18:04;;;;;;;7.72;6.93;;;24.60;78.90;;;;;;5035698;28;20032;-85
2023/08/05 00:20:30;;;;;;;8.35;7.55;;;24.60;78.90;;;;;;5034172;28;20025;-85
2023/08/05 00:22:56;;;;;;;7.70;6.55;;;24.60;79.20;;;;;;5036195;28;20080;-85
2023/08/05 00:25:21;;;;;;;7.68;6.97;;;24.60;79.30;;;;;;5034183;28;20488;-85
2023/08/05 00:27:47;;;;;;;7.70;6.90;;;24.60;79.40;;;;;;5034533;28;20125;-85
2023/08/05 00:30:13;;;;;;;7.05;6.35;;;24.60;79.50;;;;;;5035009;28;20037;-85
2023/08/05 00:32:38;;;;;;;7.70;6.60;;;24.60;79.70;;;;;;5034637;28;20044;-85
2023/08/05 00:35:05;;;;;;;7.85;7.05;;;24.50;79.70;;;;;;5035414;28;20033;-85
2023/08/05 00:37:32;;;;;;;7.35;6.65;;;24.50;79.80;;;;;;5034678;28;20151;-85
2023/08/05 00:39:58;;;;;;;7.38;6.68;;;24.50;79.90;;;;;;5034098;28;20026;-85
2023/08/05 00:42:26;;;;;;;9.45;6.70;;;24.50;80.00;;;;;;5035466;28;20025;-85
2023/08/05 00:44:52;;;;;;;7.85;7.05;;;24.50;80.10;;;;;;5035740;28;20105;-85
2023/08/05 00:47:18;;;;;;;7.88;7.05;;;24.50;80.20;;;;;;5035263;28;20057;-85
2023/08/05 00:49:45;;;;;;;7.75;6.95;;;24.40;80.90;;;;;;5034045;28;20079;-85
2023/08/05 00:52:13;;;;;;;7.22;6.53;;;24.40;80.30;;;;;;5033676;28;20465;-85
2023/08/05 00:54:40;;;;;;;7.32;6.63;;;24.30;80.50;;;;;;5038343;28;20029;-85
2023/08/05 00:57:06;;;;;;;6.85;6.25;;;24.30;80.50;;;;;;5037989;28;20025;-85
2023/08/05 00:59:32;;;;;;;7.18;6.47;;;24.30;80.50;;;;;;5038275;28;20431;-85
2023/08/05 01:01:57;;;;;;;7.22;6.53;;;24.30;80.70;;;;;;5038154;28;20021;-85
2023/08/05 01:04:24;;;;;;;7.63;6.93;;;24.30;80.80;;;;;;5037543;28;20036;-85
2023/08/05 01:06:51;;;;;;;7.45;6.75;;;24.30;80.80;;;;;;5037557;28;20029;-85
2023/08/05 01:09:16;;;;;;;6.85;6.18;;;24.30;80.80;;;;;;5038970;28;20386;-85
2023/08/05 01:11:42;;;;;;;7.05;6.35;;;24.20;80.90;;;;;;5037535;28;20036;-85
2023/08/05 01:14:08;;;;;;;8.15;7.32;;;24.20;81.00;;;;;;5037062;28;20405;-85
2023/08/05 01:16:33;;;;;;;8.75;7.50;;;24.20;81.00;;;;;;5036729;28;20036;-85
2023/08/05 01:19:03;;;;;;;7.28;6.57;;;24.20;81.00;;;;;;5038009;28;20032;-85
2023/08/05 01:22:03;;;;;;;7.13;6.43;;;24.20;81.00;;;;;;5037833;28;20030;-85
2023/08/05 01:24:52;;;;;;;8.13;6.97;;;24.10;80.80;;;;;;5023120;28;20134;-85
2023/08/05 01:27:18;;;;;;;7.78;6.97;;;24.10;80.90;;;;;;5036491;28;20044;-84
2023/08/05 01:29:44;;;;;;;8.18;7.38;;;24.10;81.20;;;;;;5037946;28;20212;-85
2023/08/05 01:32:11;;;;;;;9.95;8.88;;;24.10;81.40;;;;;;5036127;28;20378;-85
2023/08/05 01:34:37;;;;;;;9.23;8.27;;;24.10;81.60;;;;;;5037467;28;20060;-85
2023/08/05 01:37:03;;;;;;;9.05;8.18;;;24.00;81.60;;;;;;5036211;28;20532;-85
2023/08/05 01:39:29;;;;;;;8.57;7.35;;;24.10;81.70;;;;;;5035571;28;20025;-84
2023/08/05 01:41:55;;;;;;;7.57;6.85;;;24.10;81.60;;;;;;5036328;28;20035;-85
2023/08/05 01:44:21;;;;;;;7.97;7.18;;;24.10;81.70;;;;;;5036382;28;20028;-85
2023/08/05 01:46:47;;;;;;;8.02;7.22;;;24.10;81.90;;;;;;5037708;28;20029;-85
2023/08/05 01:49:12;;;;;;;8.35;7.47;;;24.10;82.00;;;;;;5036476;28;20032;-85
2023/08/05 01:51:38;;;;;;;7.45;6.75;;;24.10;82.10;;;;;;5035933;28;20033;-85
2023/08/05 01:54:04;;;;;;;7.85;6.72;;;24.00;82.10;;;;;;5036038;28;20028;-85
2023/08/05 01:56:30;;;;;;;7.60;6.90;;;24.00;82.20;;;;;;5037168;28;20120;-85
2023/08/05 01:58:55;;;;;;;7.90;7.10;;;24.00;82.20;;;;;;5037718;28;20441;-85
2023/08/05 02:01:21;;;;;;;8.82;7.10;;;24.00;82.30;;;;;;5037234;28;20017;-85
2023/08/05 02:03:47;;;;;;;7.82;7.03;;;24.00;82.40;;;;;;5036596;28;20047;-85
2023/08/05 02:06:14;;;;;;;7.88;7.07;;;24.00;82.40;;;;;;5036971;28;20525;-85
2023/08/05 02:08:40;;;;;;;8.50;7.70;;;24.00;82.20;;;;;;5036799;28;20925;-85
2023/08/05 02:11:05;;;;;;;9.60;8.50;;;23.90;82.30;;;;;;5035902;28;20029;-85
2023/08/05 02:13:31;;;;;;;9.20;8.27;;;24.00;82.30;;;;;;5035845;28;20481;-85
2023/08/05 02:15:56;;;;;;;9.25;8.18;;;24.00;82.20;;;;;;5038110;28;20053;-85
2023/08/05 02:18:22;;;;;;;8.70;7.90;;;24.00;82.10;;;;;;5038352;28;20423;-85
2023/08/05 02:20:48;;;;;;;12.32;8.32;;;24.00;82.10;;;;;;5034956;28;20034;-85
2023/08/05 02:23:13;;;;;;;8.15;7.35;;;24.00;82.10;;;;;;5035006;28;20588;-86
2023/08/05 02:25:39;;;;;;;8.48;7.68;;;24.00;82.20;;;;;;5036845;28;20034;-85
2023/08/05 02:28:04;;;;;;;8.30;7.45;;;23.90;82.30;;;;;;5036684;28;20120;-85
2023/08/05 02:30:30;;;;;;;8.40;7.53;;;23.90;82.30;;;;;;5035087;28;20065;-85
2023/08/05 02:32:56;;;;;;;8.15;7.35;;;23.90;82.50;;;;;;5035428;28;20033;-85
2023/08/05 02:35:21;;;;;;;8.93;8.02;;;23.90;82.30;;;;;;5035974;28;20485;-85
2023/08/05 02:37:47;;;;;;;8.00;7.22;;;23.90;82.40;;;;;;5034957;28;20052;-85
2023/08/05 02:40:13;;;;;;;10.48;8.05;;;23.90;82.50;;;;;;5034599;28;20026;-85
2023/08/05 02:42:38;;;;;;;8.98;8.07;;;23.90;82.10;;;;;;5034813;28;20036;-85
2023/08/05 02:45:05;;;;;;;8.57;7.68;;;23.90;81.80;;;;;;5034610;28;20029;-85
2023/08/05 02:47:30;;;;;;;8.68;7.78;;;23.90;82.00;;;;;;5035739;28;20025;-85
2023/08/05 02:49:56;;;;;;;7.68;6.60;;;23.90;81.60;;;;;;5036217;28;20389;-85
2023/08/05 02:52:22;;;;;;;8.57;7.78;;;23.90;81.40;;;;;;5036112;28;20021;-85
2023/08/05 02:54:48;;;;;;;9.05;6.63;;;23.90;81.20;;;;;;5036036;28;20065;-85
2023/08/05 02:57:13;;;;;;;7.22;6.53;;;23.90;81.00;;;;;;5033874;28;20071;-85
2023/08/05 02:59:39;;;;;;;7.30;6.60;;;23.90;80.90;;;;;;5035992;28;20151;-85
2023/08/05 03:02:05;;;;;;;7.82;6.90;;;24.00;80.90;;;;;;5035313;28;20028;-85
2023/08/05 03:04:30;;;;;;;7.82;7.05;;;24.00;80.60;;;;;;5035823;28;20066;-85
2023/08/05 03:06:56;;;;;;;7.88;7.07;;;24.00;80.30;;;;;;5034597;28;20084;-85
2023/08/05 03:09:22;;;;;;;7.22;6.50;;;24.00;80.00;;;;;;5034209;28;20041;-85
2023/08/05 03:11:48;;;;;;;9.35;6.65;;;24.10;79.90;;;;;;5034125;28;20096;-85
2023/08/05 03:14:13;;;;;;;8.55;7.70;;;24.10;79.70;;;;;;5034216;28;20037;-85
2023/08/05 03:16:40;;;;;;;7.78;7.00;;;24.10;79.60;;;;;;5032987;28;20029;-85
2023/08/05 03:19:06;;;;;;;8.25;6.70;;;24.20;79.60;;;;;;5033814;28;20029;-85
2023/08/05 03:21:32;;;;;;;7.57;6.15;;;24.20;79.70;;;;;;5034082;28;20025;-85
2023/08/05 03:23:57;;;;;;;7.35;6.65;;;24.30;79.70;;;;;;5033352;28;20033;-84
2023/08/05 03:26:23;;;;;;;8.15;7.03;;;24.30;79.60;;;;;;5033438;28;20068;-85
2023/08/05 03:28:48;;;;;;;7.60;6.50;;;24.40;79.10;;;;;;5034744;28;20489;-85
2023/08/05 03:31:14;;;;;;;6.65;5.93;;;24.50;79.10;;;;;;5033833;28;20025;-85
2023/08/05 03:33:42;;;;;;;13.15;6.55;;;24.60;79.10;;;;;;5033351;28;20029;-85
2023/08/05 03:36:07;;;;;;;7.03;6.32;;;24.70;79.10;;;;;;5033272;28;20245;-85
2023/08/05 03:38:33;;;;;;;7.78;6.60;;;24.70;79.10;;;;;;5032050;28;20028;-85
2023/08/05 03:41:05;;;;;;;7.00;6.30;;;24.80;79.00;;;;;;5032689;28;20030;-85
2023/08/05 03:43:31;;;;;;;8.13;7.00;;;24.90;79.10;;;;;;5034815;28;20096;-85
2023/08/05 03:45:56;;;;;;;8.43;6.78;;;25.00;79.00;;;;;;5035380;28;20486;-85
2023/08/05 03:48:22;;;;;;;8.68;6.85;;;25.00;78.90;;;;;;5034277;28;20119;-85
2023/08/05 03:50:47;;;;;;;7.75;6.32;;;25.10;78.60;;;;;;5035583;28;20057;-85
2023/08/05 03:53:13;;;;;;;6.65;5.65;;;25.20;78.50;;;;;;5034266;28;20021;-85
2023/08/05 03:55:39;;;;;;;7.85;6.65;;;25.40;79.10;;;;;;5034764;28;20039;-85
2023/08/05 03:58:07;;;;;;;7.88;5.88;;;25.50;79.30;;;;;;5035808;28;20483;-85
2023/08/05 04:00:32;;;;;;;9.23;6.90;;;25.80;79.40;;;;;;5034215;28;20026;-86
2023/08/05 04:02:58;;;;;;;8.32;6.80;;;26.10;79.00;;;;;;5034043;28;20172;-85
2023/08/05 04:05:24;;;;;;;7.75;6.10;;;26.50;78.40;;;;;;5035758;28;20021;-86
2023/08/05 04:07:49;;;;;;;6.93;6.20;;;26.90;77.90;;;;;;5038879;28;20041;-85
2023/08/05 04:10:19;;;;;;;6.78;6.00;;;27.50;77.30;;;;;;5039743;28;20049;-85
2023/08/05 04:12:45;;;;;;;6.78;5.57;;;28.20;74.70;;;;;;5040543;28;20025;-86
2023/08/05 04:15:13;;;;;;;7.45;5.80;;;29.00;72.60;;;;;;5037908;28;20179;-86
2023/08/05 04:17:38;;;;;;;7.45;5.97;;;29.70;70.10;;;;;;5041284;28;20037;-86
2023/08/05 04:20:05;;;;;;;7.00;5.78;;;30.40;66.80;;;;;;5041974;28;20028;-86
2023/08/05 04:22:31;;;;;;;8.05;5.68;;;31.00;65.30;;;;;;5038109;28;20017;-86
2023/08/05 04:24:57;;;;;;;6.90;5.30;;;31.60;63.50;;;;;;5041565;28;20032;-86
2023/08/05 04:27:24;;;;;;;6.85;5.53;;;32.00;62.30;;;;;;5042895;28;20087;-86
2023/08/05 04:29:50;;;;;;;6.38;5.78;;;32.00;60.80;;;;;;5042110;28;20025;-86
2023/08/05 04:32:16;;;;;;;6.82;5.97;;;31.90;60.30;;;;;;5041110;28;20031;-86
2023/08/05 04:34:41;;;;;;;8.10;5.85;;;31.50;60.80;;;;;;5038669;28;20030;-85
2023/08/05 04:37:20;;;;;;;7.93;5.90;;;31.20;61.40;;;;;;5039525;28;20029;-86
2023/08/05 04:39:46;;;;;;;6.97;6.20;;;31.20;61.40;;;;;;5043564;28;20117;-87
2023/08/05 04:42:12;;;;;;;8.88;6.38;;;31.20;61.40;;;;;;5041284;28;20018;-87
2023/08/05 04:44:41;;;;;;;6.72;5.88;;;31.00;61.20;;;;;;5042073;28;20029;-87
2023/08/05 04:47:11;;;;;;;6.73;5.67;;;30.90;61.40;;;;;;5041005;28;20025;-87
2023/08/05 04:49:40;;;;;;;7.35;5.95;;;30.80;62.00;;;;;;5040573;28;20036;-87
2023/08/05 04:52:06;;;;;;;6.23;5.47;;;31.20;61.90;;;;;;5040811;28;20033;-87
2023/08/05 04:54:43;;;;;;;5.90;5.30;;;31.50;61.50;;;;;;5040094;28;20037;-87
2023/08/05 04:57:10;;;;;;;8.20;5.22;;;31.70;61.20;;;;;;5039531;28;20057;-87
2023/08/05 04:59:35;;;;;;;7.85;5.97;;;31.70;60.90;;;;;;5043008;28;20029;-87
2023/08/05 05:02:01;;;;;;;6.90;6.00;;;31.80;60.70;;;;;;5045060;28;20026;-87
2023/08/05 05:04:27;;;;;;;6.50;5.53;;;32.00;60.40;;;;;;5045469;28;20030;-85
2023/08/05 05:06:53;;;;;;;6.97;5.78;;;32.50;60.10;;;;;;5046133;28;20029;-85
2023/08/05 05:09:18;;;;;;;6.00;5.40;;;33.00;59.20;;;;;;5044402;28;20068;-84
2023/08/05 05:11:44;;;;;;;6.40;4.80;;;33.20;58.60;;;;;;5045458;28;20017;-85
2023/08/05 05:14:10;;;;;;;7.97;6.22;;;33.20;58.30;;;;;;5044020;28;20042;-86
2023/08/05 05:16:35;;;;;;;6.97;5.38;;;33.00;58.80;;;;;;5043723;28;20036;-86
2023/08/05 05:19:01;;;;;;;7.13;5.82;;;32.70;58.50;;;;;;5041536;28;20025;-85
2023/08/05 05:21:27;;;;;;;10.85;5.55;;;32.30;58.70;;;;;;5041555;28;20085;-85
2023/08/05 05:23:52;;;;;;;6.68;5.97;;;31.90;59.50;;;;;;5040769;28;20032;-86
2023/08/05 05:26:21;;;;;;;5.72;5.05;;;31.50;60.10;;;;;;5043009;28;20218;-86
2023/08/05 05:28:47;;;;;;;7.63;5.97;;;31.10;61.00;;;;;;5042432;28;20055;-86
2023/08/05 05:31:12;;;;;;;8.65;6.28;;;30.70;61.40;;;;;;5041769;28;20030;-85
2023/08/05 05:33:38;;;;;;;6.90;6.20;;;30.60;61.90;;;;;;5042789;28;20041;-85
2023/08/05 05:36:04;;;;;;;7.20;6.03;;;30.60;61.70;;;;;;5042084;28;20044;-85
2023/08/05 05:38:29;;;;;;;6.20;5.47;;;30.70;61.70;;;;;;5043600;28;20022;-85
2023/08/05 05:40:55;;;;;;;7.10;6.40;;;30.70;61.80;;;;;;5044765;28;20025;-85
2023/08/05 05:43:20;;;;;;;6.22;5.47;;;30.60;61.90;;;;;;5045229;28;20097;-85
2023/08/05 05:45:46;;;;;;;7.13;6.18;;;30.60;62.60;;;;;;5047357;28;20025;-85
2023/08/05 05:48:12;;;;;;;6.93;5.82;;;30.40;63.30;;;;;;5047436;28;20030;-85
2023/08/05 05:50:41;;;;;;;6.35;5.70;;;30.20;63.80;;;;;;5045506;28;20030;-85
2023/08/05 05:53:08;;;;;;;6.70;5.95;;;30.00;64.50;;;;;;5045728;28;20481;-85
2023/08/05 05:55:34;;;;;;;7.18;6.50;;;29.90;65.60;;;;;;5044755;28;20032;-85
2023/08/05 05:57:59;;;;;;;8.15;6.70;;;29.70;66.50;;;;;;5045109;28;20061;-85
2023/08/05 06:00:25;;;;;;;6.50;5.90;;;29.60;66.90;;;;;;5043600;28;20026;-85
2023/08/05 06:02:51;;;;;;;7.65;6.70;;;29.40;67.10;;;;;;5046518;28;20029;-85
2023/08/05 06:05:17;;;;;;;7.13;6.43;;;29.30;68.40;;;;;;5045088;28;20045;-85
2023/08/05 06:07:43;;;;;;;7.10;6.40;;;29.20;68.10;;;;;;5044899;28;20029;-86
2023/08/05 06:10:09;;;;;;;8.52;6.50;;;29.10;68.50;;;;;;5045365;28;20080;-86
2023/08/05 06:12:37;;;;;;;7.25;5.88;;;29.00;68.80;;;;;;5043400;28;20037;-86
2023/08/05 06:15:04;;;;;;;8.07;6.38;;;29.00;69.00;;;;;;5040576;28;20064;-86
2023/08/05 06:17:29;;;;;;;7.10;5.63;;;29.00;69.40;;;;;;5042640;28;20025;-86
2023/08/05 06:19:55;;;;;;;7.00;5.63;;;28.90;69.30;;;;;;5043338;28;20022;-85
2023/08/05 06:22:21;;;;;;;7.82;6.80;;;28.90;69.50;;;;;;5043202;28;20022;-86
2023/08/05 06:24:46;;;;;;;9.05;7.40;;;28.80;69.40;;;;;;5044485;28;20041;-86
2023/08/05 06:27:12;;;;;;;7.47;6.28;;;28.80;69.60;;;;;;5042751;28;20104;-86
2023/08/05 06:29:38;;;;;;;8.43;7.03;;;28.70;69.90;;;;;;5042184;28;20397;-86
2023/08/05 06:32:04;;;;;;;7.90;6.82;;;28.70;70.20;;;;;;5043503;28;20065;-85
2023/08/05 06:34:30;;;;;;;7.22;6.53;;;28.70;70.40;;;;;;5043717;28;20500;-86
2023/08/05 06:36:55;;;;;;;7.05;6.05;;;28.60;70.50;;;;;;5043665;28;20033;-86
2023/08/05 06:39:21;;;;;;;7.50;6.80;;;28.60;70.80;;;;;;5044101;28;20018;-86
2023/08/05 06:41:47;;;;;;;7.22;6.38;;;28.50;71.10;;;;;;5041991;28;20029;-86
2023/08/05 06:44:12;;;;;;;7.32;6.20;;;28.50;71.00;;;;;;5043890;28;20033;-86
2023/08/05 06:46:39;;;;;;;8.45;6.65;;;28.50;71.40;;;;;;5043270;28;20647;-86
2023/08/05 06:49:05;;;;;;;7.57;6.78;;;28.50;71.50;;;;;;5042092;28;20025;-86
2023/08/05 06:51:32;;;;;;;7.85;7.05;;;28.50;71.80;;;;;;5043581;28;20495;-86
2023/08/05 06:53:58;;;;;;;8.88;6.90;;;28.50;71.80;;;;;;5044687;28;20101;-86
2023/08/05 06:56:23;;;;;;;8.00;6.95;;;28.40;72.00;;;;;;5043391;28;20030;-86
2023/08/05 06:58:49;;;;;;;7.82;6.45;;;28.50;72.10;;;;;;5043433;28;20021;-86
2023/08/05 07:01:15;;;;;;;6.97;6.30;;;28.40;72.20;;;;;;5042986;28;20017;-85
2023/08/05 07:03:44;;;;;;;6.72;6.13;;;28.40;72.50;;;;;;5043559;28;20049;-86
2023/08/05 07:06:10;;;;;;;8.45;6.30;;;28.40;72.70;;;;;;5042087;28;20022;-85
2023/08/05 07:08:36;;;;;;;8.60;6.47;;;28.40;72.90;;;;;;5043413;28;20048;-86
2023/08/05 07:11:02;;;;;;;7.40;6.22;;;28.50;73.10;;;;;;5042738;28;20022;-86
2023/08/05 07:13:28;;;;;;;7.05;6.15;;;28.40;73.00;;;;;;5043229;28;20085;-86
2023/08/05 07:16:01;;;;;;;7.13;6.32;;;28.50;73.20;;;;;;5042531;28;20049;-87
2023/08/05 07:18:27;;;;;;;6.85;6.15;;;28.50;73.10;;;;;;5042041;28;20052;-85
2023/08/05 07:20:53;;;;;;;8.23;6.88;;;28.40;73.40;;;;;;5043723;28;20029;-86
2023/08/05 07:23:19;;;;;;;6.93;6.22;;;28.40;73.50;;;;;;5042026;28;20033;-85
2023/08/05 07:25:45;;;;;;;6.95;6.28;;;28.40;73.50;;;;;;5042218;28;20029;-85
2023/08/05 07:28:11;;;;;;;6.90;6.20;;;28.40;73.90;;;;;;5042155;28;20436;-86
2023/08/05 07:30:36;;;;;;;7.55;6.22;;;28.40;74.10;;;;;;5043085;28;20029;-86
2023/08/05 07:33:04;;;;;;;7.53;6.80;;;28.40;74.50;;;;;;5041780;28;20025;-86
2023/08/05 07:35:30;;;;;;;7.78;7.00;;;28.40;74.80;;;;;;5042057;28;20021;-86
2023/08/05 07:37:56;;;;;;;7.93;7.13;;;28.40;74.90;;;;;;5042636;28;20030;-85
2023/08/05 07:40:25;;;;;;;7.97;7.00;;;28.40;75.10;;;;;;5041357;28;20021;-86
2023/08/05 07:42:53;;;;;;;7.05;6.35;;;28.40;75.30;;;;;;5042825;28;20021;-86
2023/08/05 07:45:21;;;;;;;7.78;6.97;;;28.30;75.00;;;;;;5042426;28;20028;-86
2023/08/05 07:47:47;;;;;;;8.20;6.88;;;28.30;75.00;;;;;;5043843;28;20478;-86
2023/08/05 07:50:20;;;;;;;8.50;7.35;;;28.30;75.40;;;;;;5043196;28;20025;-86
2023/08/05 07:52:45;;;;;;;7.88;6.72;;;28.30;75.50;;;;;;5043687;28;20026;-86
2023/08/05 07:55:11;;;;;;;7.25;6.55;;;28.20;75.40;;;;;;5042587;28;20461;-86
2023/08/05 07:57:37;;;;;;;7.30;6.60;;;28.30;75.50;;;;;;5043364;28;20025;-86
2023/08/05 08:00:04;;;;;;;7.50;6.80;;;28.20;75.50;;;;;;5041927;28;20052;-86
2023/08/05 08:02:30;;;;;;;7.95;7.18;;;28.20;76.00;;;;;;5042746;28;20024;-85
2023/08/05 08:04:57;;;;;;;7.82;6.88;;;28.20;76.10;;;;;;5041574;28;20119;-86
2023/08/05 08:07:23;;;;;;;8.32;7.00;;;28.20;76.50;;;;;;5042436;28;20021;-86
2023/08/05 08:09:49;;;;;;;8.88;7.85;;;28.20;76.80;;;;;;5042303;28;20039;-86
2023/08/05 08:12:14;;;;;;;8.95;7.78;;;28.20;77.00;;;;;;5043783;28;20025;-86
2023/08/05 08:14:40;;;;;;;8.57;7.70;;;28.10;76.90;;;;;;5043237;28;20129;-86
2023/08/05 08:17:06;;;;;;;9.40;8.50;;;28.10;77.60;;;;;;5041761;28;20029;-86
2023/08/05 08:19:31;;;;;;;9.27;8.38;;;28.10;77.80;;;;;;5039933;28;20026;-86
2023/08/05 08:21:57;;;;;;;10.60;8.93;;;28.10;78.30;;;;;;5041970;28;20026;-86
2023/08/05 08:24:22;;;;;;;9.25;8.35;;;28.10;78.70;;;;;;5042437;28;20029;-85
2023/08/05 08:26:48;;;;;;;9.48;8.52;;;28.00;79.00;;;;;;5043039;28;20029;-85
2023/08/05 08:29:14;;;;;;;10.95;9.90;;;28.00;79.00;;;;;;5041004;28;20388;-86
2023/08/05 08:31:39;;;;;;;10.57;9.45;;;28.00;79.60;;;;;;5042656;28;20029;-86
2023/08/05 08:34:05;;;;;;;10.27;9.27;;;28.00;79.80;;;;;;5040991;28;20103;-86
2023/08/05 08:36:30;;;;;;;11.32;10.23;;;27.90;79.90;;;;;;5041738;28;20029;-86
2023/08/05 08:38:56;;;;;;;11.27;9.80;;;27.90;80.00;;;;;;5043180;28;20034;-86
2023/08/05 08:41:24;;;;;;;12.18;10.88;;;27.90;80.30;;;;;;5041106;28;20093;-86
2023/08/05 08:43:51;;;;;;;13.15;11.90;;;27.80;80.50;;;;;;5042573;28;20057;-86
2023/08/05 08:46:19;;;;;;;12.30;11.10;;;27.80;81.20;;;;;;5041528;28;20087;-86
2023/08/05 08:48:48;;;;;;;12.05;10.85;;;27.80;81.30;;;;;;5041528;28;20022;-86
2023/08/05 08:51:17;;;;;;;10.77;9.77;;;27.80;81.20;;;;;;5041851;28;20025;-86
2023/08/05 08:53:43;;;;;;;11.52;10.32;;;27.70;81.10;;;;;;5042489;28;20032;-86
2023/08/05 08:56:10;;;;;;;11.15;10.05;;;27.70;81.00;;;;;;5041991;28;20021;-86
2023/08/05 08:58:35;;;;;;;10.43;9.43;;;27.70;81.00;;;;;;5041225;28;20026;-86
2023/08/05 09:01:03;;;;;;;10.73;9.63;;;27.70;80.70;;;;;;5041488;28;20037;-86
2023/08/05 09:03:32;;;;;;;10.85;9.73;;;27.70;80.90;;;;;;5042831;28;20038;-86
2023/08/05 09:05:59;;;;;;;10.13;8.77;;;27.70;80.40;;;;;;5041927;28;20021;-86
2023/08/05 09:08:25;;;;;;;9.27;8.38;;;27.70;80.40;;;;;;5024098;28;20049;-86
2023/08/05 09:10:51;;;;;;;10.35;9.35;;;27.70;80.40;;;;;;5041562;28;20512;-86
2023/08/05 09:13:16;;;;;;;11.55;10.40;;;27.70;80.90;;;;;;5041000;28;20021;-86
2023/08/05 09:15:42;;;;;;;10.82;9.82;;;27.60;80.90;;;;;;5041587;28;20049;-86
2023/08/05 09:18:09;;;;;;;12.45;10.02;;;27.60;81.10;;;;;;5043422;28;20296;-86
2023/08/05 09:20:36;;;;;;;10.68;9.57;;;27.60;80.20;;;;;;5042977;28;20108;-86
2023/08/05 09:23:06;;;;;;;11.88;10.25;;;27.60;80.20;;;;;;5043968;28;20124;-86
2023/08/05 09:25:37;;;;;;;9.27;8.38;;;27.60;80.00;;;;;;5045132;28;20017;-86
2023/08/05 09:28:05;;;;;;;10.95;9.95;;;27.50;79.10;;;;;;5045262;28;20136;-86
2023/08/05 09:30:32;;;;;;;14.82;10.75;;;27.50;79.00;;;;;;5044715;28;20010;-86
2023/08/05 09:32:58;;;;;;;11.00;9.98;;;27.50;79.10;;;;;;5043944;28;20446;-86
2023/08/05 09:35:25;;;;;;;9.95;8.95;;;27.50;78.90;;;;;;5042824;28;20535;-86
2023/08/05 09:37:52;;;;;;;10.77;9.68;;;27.50;78.70;;;;;;5041681;28;20060;-86
2023/08/05 09:40:29;;;;;;;12.45;9.85;;;27.40;78.30;;;;;;5041826;28;20089;-85
2023/08/05 09:42:59;;;;;;;11.35;9.40;;;27.40;78.00;;;;;;5041570;28;20163;-86
2023/08/05 09:45:28;;;;;;;10.07;9.07;;;27.40;77.60;;;;;;5043294;28;20021;-86
2023/08/05 09:48:10;;;;;;;9.70;8.80;;;27.40;77.60;;;;;;5042086;28;20088;-86
2023/08/05 09:50:37;;;;;;;9.43;8.52;;;27.40;77.10;;;;;;5043689;28;20032;-86
2023/08/05 09:53:09;;;;;;;8.23;7.35;;;27.40;76.80;;;;;;5040360;28;20025;-86
2023/08/05 09:55:37;;;;;;;8.85;7.95;;;27.50;76.40;;;;;;5041741;28;20108;-85
2023/08/05 09:58:07;;;;;;;11.38;7.38;;;27.40;76.00;;;;;;5044097;28;20029;-86
2023/08/05 10:00:35;;;;;;;10.50;8.40;;;27.40;75.10;;;;;;5041220;28;20119;-86
2023/08/05 10:03:06;;;;;;;8.93;8.02;;;27.50;75.50;;;;;;5040444;28;20051;-86
2023/08/05 10:05:31;;;;;;;9.50;8.13;;;27.50;74.90;;;;;;5042789;28;20052;-86
2023/08/05 10:07:59;;;;;;;8.73;7.88;;;27.50;74.90;;;;;;5044402;28;20029;-86
2023/08/05 10:10:25;;;;;;;8.65;7.78;;;27.50;74.50;;;;;;5043763;28;20033;-86
2023/08/05 10:12:57;;;;;;;9.43;7.82;;;27.40;73.90;;;;;;5042601;28;20032;-86
2023/08/05 10:15:29;;;;;;;8.70;7.88;;;27.50;73.90;;;;;;5041855;28;20288;-86
2023/08/05 10:17:56;;;;;;;9.23;8.18;;;27.50;73.50;;;;;;5042287;28;20174;-86
2023/08/05 10:20:22;;;;;;;10.65;7.75;;;27.50;73.20;;;;;;5040441;28;20060;-86
2023/08/05 10:23:04;;;;;;;10.20;8.95;;;27.50;72.60;;;;;;5042041;28;20025;-86
2023/08/05 10:25:48;;;;;;;10.30;8.02;;;27.60;72.00;;;;;;5044721;28;20021;-86
2023/08/05 10:28:23;;;;;;;9.77;8.30;;;27.60;71.30;;;;;;5043327;28;20496;-86
2023/08/05 10:30:48;;;;;;;8.75;7.93;;;27.70;71.90;;;;;;5043584;28;20036;-85
2023/08/05 10:33:15;;;;;;;9.68;8.68;;;27.70;71.90;;;;;;5044415;28;20025;-86
2023/08/05 10:35:42;;;;;;;8.25;7.45;;;27.70;71.90;;;;;;5044380;28;20504;-86
2023/08/05 10:38:16;;;;;;;8.55;7.75;;;27.70;72.00;;;;;;5042983;28;20029;-86
2023/08/05 10:40:45;;;;;;;10.48;9.40;;;27.70;71.90;;;;;;5043568;28;20090;-86
2023/08/05 10:43:24;;;;;;;10.27;9.27;;;27.70;72.30;;;;;;5043088;28;20036;-86
2023/08/05 10:45:50;;;;;;;9.68;8.77;;;27.80;72.20;;;;;;5043751;28;20022;-86
2023/08/05 10:48:17;;;;;;;10.02;9.02;;;27.80;72.60;;;;;;5046626;28;20053;-86
2023/08/05 10:50:43;;;;;;;10.68;9.68;;;27.80;72.70;;;;;;5049175;28;20048;-86
2023/08/05 10:53:12;;;;;;;10.25;9.25;;;27.80;72.70;;;;;;5049363;28;20040;-87
2023/08/05 10:55:48;;;;;;;11.13;9.98;;;27.70;72.90;;;;;;5045619;28;20029;-86
2023/08/05 10:58:20;;;;;;;10.50;9.50;;;27.70;73.40;;;;;;5040697;28;20021;-86
2023/08/05 11:00:56;;;;;;;11.63;10.43;;;27.70;73.30;;;;;;5042009;28;20060;-86
2023/08/05 11:03:38;;;;;;;10.68;9.57;;;27.70;73.40;;;;;;5041975;28;20032;-86
2023/08/05 11:06:07;;;;;;;11.60;10.40;;;27.70;73.50;;;;;;5042619;28;20021;-86
2023/08/05 11:08:34;;;;;;;10.95;9.73;;;27.70;73.60;;;;;;5041547;28;20067;-86
2023/08/05 11:11:04;;;;;;;9.23;8.43;;;27.70;73.60;;;;;;5041306;28;20030;-87
2023/08/05 11:13:34;;;;;;;9.57;8.68;;;27.70;73.40;;;;;;5041413;28;20029;-86
2023/08/05 11:16:04;;;;;;;9.77;8.88;;;27.70;73.40;;;;;;5042169;28;20053;-86
2023/08/05 11:18:30;;;;;;;9.43;8.63;;;27.70;72.90;;;;;;5041430;28;20045;-86
2023/08/05 11:20:57;;;;;;;8.98;8.15;;;27.70;73.00;;;;;;5041136;28;20085;-86
2023/08/05 11:23:24;;;;;;;10.15;9.15;;;27.70;72.80;;;;;;5041992;28;20021;-86
2023/08/05 11:25:53;;;;;;;11.73;9.18;;;27.70;72.60;;;;;;5042656;28;20030;-86
2023/08/05 11:28:20;;;;;;;10.52;9.52;;;27.70;72.00;;;;;;5043654;28;20025;-86
2023/08/05 11:30:45;;;;;;;9.95;9.05;;;27.80;72.20;;;;;;5041103;28;20037;-86
2023/08/05 11:33:11;;;;;;;9.98;8.98;;;27.70;72.30;;;;;;5042894;28;20034;-86
2023/08/05 11:35:45;;;;;;;9.27;8.48;;;27.70;72.10;;;;;;5043023;28;20052;-86
2023/08/05 11:38:11;;;;;;;10.63;9.50;;;27.80;71.60;;;;;;5039807;28;20029;-86
2023/08/05 11:40:47;;;;;;;9.60;8.60;;;27.80;71.70;;;;;;5040757;28;20024;-86
2023/08/05 11:43:14;;;;;;;10.77;8.73;;;27.80;70.10;;;;;;5040655;28;20048;-86
2023/08/05 11:45:41;;;;;;;9.95;8.93;;;27.80;70.60;;;;;;5041185;28;20386;-86
2023/08/05 11:48:22;;;;;;;9.60;8.70;;;27.80;70.90;;;;;;5040249;28;20481;-86
2023/08/05 11:50:50;;;;;;;9.68;8.73;;;27.80;70.50;;;;;;5039696;28;20195;-86
2023/08/05 11:53:16;;;;;;;9.95;8.95;;;27.80;71.40;;;;;;5040185;28;20030;-86
2023/08/05 11:55:42;;;;;;;10.40;8.25;;;27.90;71.50;;;;;;5040562;28;20025;-86
2023/08/05 11:58:10;;;;;;;8.82;7.93;;;27.80;71.80;;;;;;5039719;28;20083;-86
2023/08/05 12:00:36;;;;;;;9.25;8.35;;;27.80;71.70;;;;;;5039962;28;20059;-86
2023/08/05 12:03:05;;;;;;;9.75;8.85;;;27.80;71.40;;;;;;5041979;28;20029;-86
2023/08/05 12:05:31;;;;;;;9.93;8.93;;;27.80;71.00;;;;;;5040563;28;20022;-87
2023/08/05 12:07:57;;;;;;;9.98;8.65;;;27.80;70.90;;;;;;5041387;28;20029;-86
2023/08/05 12:10:23;;;;;;;11.15;8.77;;;27.80;71.30;;;;;;5041660;28;20512;-86
2023/08/05 12:12:50;;;;;;;9.65;8.65;;;27.80;70.70;;;;;;5039784;28;20065;-86
2023/08/05 12:15:24;;;;;;;9.63;8.63;;;27.80;70.70;;;;;;5040476;28;20056;-86
2023/08/05 12:17:51;;;;;;;10.25;9.35;;;27.80;70.90;;;;;;5040034;28;20033;-86
2023/08/05 12:20:25;;;;;;;9.20;8.30;;;27.80;71.40;;;;;;5040314;28;20052;-86
2023/08/05 12:22:52;;;;;;;10.48;9.40;;;27.80;71.30;;;;;;5039533;28;20032;-86
2023/08/05 12:25:18;;;;;;;9.93;9.02;;;27.80;71.20;;;;;;5041231;28;20021;-86
2023/08/05 12:27:44;;;;;;;9.95;9.05;;;27.70;70.50;;;;;;5042408;28;20037;-86
2023/08/05 12:30:11;;;;;;;9.80;8.90;;;27.80;70.10;;;;;;5041312;28;20025;-86
2023/08/05 12:32:37;;;;;;;10.18;9.18;;;27.70;70.90;;;;;;5039672;28;20057;-86
2023/08/05 12:35:04;;;;;;;10.15;9.15;;;27.80;71.60;;;;;;5039862;28;20478;-86
2023/08/05 12:37:30;;;;;;;11.05;9.95;;;27.80;72.10;;;;;;5040292;28;20044;-86
2023/08/05 12:39:56;;;;;;;9.77;8.80;;;27.70;71.40;;;;;;5040034;28;20030;-86
2023/08/05 12:42:21;;;;;;;11.30;9.88;;;27.80;71.20;;;;;;5040294;28;20034;-86
2023/08/05 12:44:47;;;;;;;10.25;9.25;;;27.80;69.80;;;;;;5041199;28;20032;-86